Whitewright, Texas
Current Conditions -  °F | °C
As of 7:15 PM on Friday 24 Oct 2014 (Local Time) from KGYI Reporting Station
Clear Clear  
Wind Chill: 75°   Ceiling: Unl
Heat Index: 75°   Visibility: 10mi
Dew Point: 64°   Wind: 7mph
Humidity: 68%   Direction: 150°SSE
Pressure: 30.07"   Gusts: NA
Location:  33.51°N, 96.39°W
Report Text: KGYI 250015Z AUTO 15006KT 10SM CLR 24/18 A3007 RMK AO2 T02390176
Loading
Personal Weather Stations






























Interactive Weather Map
Tropical Storm Tracking
New forecast layout! Learn more

10-Day Weather Forecast

Advertisements
Track Severe Weather on mobile